Time;durP1;ratioP1;P1;durP2;ratioP2;P2;SDS_P1;SDS_P2;PMS_P1;PMS_P2;Temp;Humidity;BMP_temperature;BMP_pressure;BME280_temperature;BME280_humidity;BME280_pressure;Samples;Min_cycle;Max_cycle;Signal;HPM_P1;HPM_P2
2022/02/23 00:00:28;;;;;;;10.02;2.35;;;8.50;67.20;;;;;;5066938;28;20584;-75
2022/02/23 00:02:54;;;;;;;9.07;2.63;;;8.50;67.30;;;;;;5066310;28;20037;-76
2022/02/23 00:05:20;;;;;;;8.23;2.60;;;8.50;67.30;;;;;;5066882;28;20036;-76
2022/02/23 00:07:47;;;;;;;7.68;3.10;;;8.50;67.30;;;;;;5067072;28;20086;-76
2022/02/23 00:10:13;;;;;;;8.50;3.13;;;8.50;67.40;;;;;;5066702;28;20028;-76
2022/02/23 00:12:39;;;;;;;13.73;3.33;;;8.40;67.20;;;;;;5066657;28;20056;-76
2022/02/23 00:15:06;;;;;;;8.75;2.60;;;8.50;67.90;;;;;;5066495;28;20020;-76
2022/02/23 00:17:32;;;;;;;9.80;2.85;;;8.40;67.20;;;;;;5049009;28;20425;-76
2022/02/23 00:19:59;;;;;;;10.98;3.03;;;8.40;67.30;;;;;;5066311;28;20039;-77
2022/02/23 00:22:25;;;;;;;7.63;2.80;;;8.40;67.30;;;;;;5066707;28;20040;-75
2022/02/23 00:24:52;;;;;;;10.38;2.55;;;8.40;67.30;;;;;;5048942;28;20059;-76
2022/02/23 00:27:18;;;;;;;10.82;2.72;;;8.40;67.40;;;;;;5066094;28;20755;-78
2022/02/23 00:29:44;;;;;;;10.73;4.25;;;8.40;67.40;;;;;;5066194;28;20021;-78
2022/02/23 00:32:10;;;;;;;8.98;2.30;;;8.30;67.20;;;;;;5066941;28;20029;-78
2022/02/23 00:34:36;;;;;;;13.75;4.18;;;8.30;67.20;;;;;;5066434;28;20036;-77
2022/02/23 00:37:02;;;;;;;8.00;2.38;;;8.30;67.30;;;;;;5066549;28;20032;-77
2022/02/23 00:39:28;;;;;;;9.70;2.70;;;8.30;67.30;;;;;;5066045;28;20059;-77
2022/02/23 00:41:54;;;;;;;7.25;2.17;;;8.30;67.30;;;;;;5048077;28;20115;-77
2022/02/23 00:44:20;;;;;;;7.50;2.35;;;8.20;67.10;;;;;;5048619;28;20048;-77
2022/02/23 00:46:47;;;;;;;10.18;4.18;;;8.20;67.20;;;;;;5023325;28;1221716;-77
2022/02/23 00:49:13;;;;;;;9.50;3.10;;;8.20;67.20;;;;;;5067504;28;20029;-78
2022/02/23 00:51:39;;;;;;;10.60;2.63;;;8.20;67.30;;;;;;5067611;28;20044;-78
2022/02/23 00:54:06;;;;;;;9.68;2.45;;;8.10;67.10;;;;;;5067083;28;20032;-78
2022/02/23 00:56:32;;;;;;;8.35;2.35;;;8.10;67.20;;;;;;5067509;28;20029;-77
2022/02/23 00:58:58;;;;;;;12.60;2.88;;;8.10;67.20;;;;;;5049007;28;20024;-77
2022/02/23 01:01:25;;;;;;;9.48;2.67;;;8.10;67.20;;;;;;5049274;28;20029;-77
2022/02/23 01:03:51;;;;;;;6.88;2.25;;;8.10;67.30;;;;;;5048651;28;20044;-77
2022/02/23 01:06:17;;;;;;;7.28;2.78;;;8.10;67.30;;;;;;5067540;28;20021;-78
2022/02/23 01:08:43;;;;;;;8.05;2.35;;;8.10;67.30;;;;;;5066554;28;20071;-77
2022/02/23 01:11:10;;;;;;;8.55;2.83;;;8.00;67.10;;;;;;5048779;28;20024;-77
2022/02/23 01:13:36;;;;;;;6.38;2.35;;;8.00;67.20;;;;;;5049073;28;20037;-77
2022/02/23 01:16:02;;;;;;;5.88;2.17;;;8.00;67.20;;;;;;5066356;28;20035;-78
2022/02/23 01:18:28;;;;;;;8.05;2.35;;;8.00;67.20;;;;;;5071003;28;20085;-77
2022/02/23 01:20:54;;;;;;;9.23;2.60;;;7.90;67.00;;;;;;5087450;28;20502;-77
2022/02/23 01:23:21;;;;;;;11.65;2.60;;;7.90;67.10;;;;;;5069829;28;20052;-78
2022/02/23 01:25:47;;;;;;;6.65;1.90;;;7.90;67.10;;;;;;5071170;28;20052;-77
2022/02/23 01:28:13;;;;;;;7.85;2.30;;;7.90;67.10;;;;;;5069071;28;20050;-78
2022/02/23 01:30:39;;;;;;;9.13;2.53;;;7.80;66.90;;;;;;5049413;28;20024;-77
2022/02/23 01:33:05;;;;;;;11.43;3.38;;;7.80;67.00;;;;;;5067280;28;20036;-78
2022/02/23 01:35:31;;;;;;;8.40;2.72;;;7.80;67.10;;;;;;5048877;28;20048;-77
2022/02/23 01:37:58;;;;;;;7.93;2.47;;;7.70;66.90;;;;;;5048916;28;20060;-77
2022/02/23 01:40:25;;;;;;;11.57;2.85;;;7.70;66.90;;;;;;5068272;28;20498;-78
2022/02/23 01:42:52;;;;;;;9.65;2.67;;;7.70;66.90;;;;;;5070568;28;20048;-77
2022/02/23 01:45:19;;;;;;;11.63;2.83;;;7.70;67.00;;;;;;5052444;28;20024;-77
2022/02/23 01:47:45;;;;;;;11.70;3.38;;;7.60;66.80;;;;;;5070640;28;20044;-77
2022/02/23 01:50:13;;;;;;;9.82;2.38;;;7.60;66.90;;;;;;5070422;28;20029;-77
2022/02/23 01:52:39;;;;;;;7.00;2.15;;;7.60;66.90;;;;;;5070242;28;20032;-76
2022/02/23 01:55:06;;;;;;;5.40;2.45;;;7.60;66.90;;;;;;5070325;28;20082;-77
2022/02/23 01:57:33;;;;;;;12.23;3.30;;;7.60;66.90;;;;;;5070690;28;20032;-77
2022/02/23 01:59:59;;;;;;;7.50;2.25;;;7.60;67.00;;;;;;5069950;28;20119;-77
2022/02/23 02:02:26;;;;;;;9.68;2.60;;;7.60;67.00;;;;;;5070351;28;20036;-77
2022/02/23 02:04:53;;;;;;;11.70;2.75;;;7.60;67.00;;;;;;5069948;28;20115;-77
2022/02/23 02:07:19;;;;;;;9.77;2.17;;;7.60;67.00;;;;;;5070113;28;20032;-76
2022/02/23 02:09:45;;;;;;;9.93;3.35;;;7.60;67.00;;;;;;5069844;28;20020;-77
2022/02/23 02:12:11;;;;;;;7.90;2.30;;;7.60;67.00;;;;;;5035342;28;20036;-77
2022/02/23 02:14:37;;;;;;;10.13;2.63;;;7.50;66.90;;;;;;5052110;28;20131;-77
2022/02/23 02:17:04;;;;;;;8.73;2.25;;;7.60;67.10;;;;;;5051869;28;20021;-77
2022/02/23 02:19:30;;;;;;;6.22;2.47;;;7.50;66.90;;;;;;5051930;28;20046;-77
2022/02/23 02:21:58;;;;;;;7.50;2.20;;;7.50;66.90;;;;;;5051402;28;20399;-77
2022/02/23 02:24:26;;;;;;;14.05;3.20;;;7.50;66.90;;;;;;5069793;28;20024;-77
2022/02/23 02:26:54;;;;;;;6.50;2.13;;;7.50;66.90;;;;;;5069654;28;20083;-77
2022/02/23 02:29:20;;;;;;;6.75;2.50;;;7.50;67.00;;;;;;5069310;28;20457;-77
2022/02/23 02:31:48;;;;;;;11.23;3.22;;;7.50;67.00;;;;;;5051936;28;20111;-77
2022/02/23 02:34:15;;;;;;;11.93;3.17;;;7.40;66.90;;;;;;5051611;28;20547;-76
2022/02/23 02:36:42;;;;;;;7.18;2.28;;;7.40;66.90;;;;;;5073256;28;20051;-77
2022/02/23 02:39:08;;;;;;;17.58;4.15;;;7.40;66.90;;;;;;5071588;28;20405;-77
2022/02/23 02:41:36;;;;;;;14.43;2.72;;;7.50;67.10;;;;;;5089967;28;20030;-77
2022/02/23 02:44:04;;;;;;;10.10;2.33;;;7.40;66.90;;;;;;5071516;28;20093;-77
2022/02/23 02:46:30;;;;;;;9.15;3.45;;;7.40;67.00;;;;;;5071939;28;20028;-77
2022/02/23 02:48:56;;;;;;;10.90;2.83;;;7.40;67.00;;;;;;5074668;28;20043;-77
2022/02/23 02:51:22;;;;;;;9.20;2.80;;;7.40;67.00;;;;;;5092086;28;20028;-76
2022/02/23 02:53:49;;;;;;;10.75;2.70;;;7.40;67.50;;;;;;5074781;28;20078;-76
2022/02/23 02:56:15;;;;;;;6.75;2.33;;;7.40;67.00;;;;;;5092520;28;20027;-76
2022/02/23 02:58:41;;;;;;;9.20;2.92;;;7.50;67.30;;;;;;5092477;28;20035;-77
2022/02/23 03:01:09;;;;;;;9.77;2.60;;;7.50;67.20;;;;;;5092563;28;20042;-76
2022/02/23 03:03:35;;;;;;;13.15;3.63;;;7.40;67.00;;;;;;5092177;28;20592;-76
2022/02/23 03:06:01;;;;;;;12.48;2.47;;;7.40;67.00;;;;;;5074142;28;20116;-76
2022/02/23 03:08:28;;;;;;;8.23;2.67;;;7.50;67.20;;;;;;5092511;28;20039;-76
2022/02/23 03:10:55;;;;;;;11.57;2.67;;;7.50;67.10;;;;;;5074001;28;20490;-76
2022/02/23 03:13:21;;;;;;;8.98;2.60;;;7.50;67.10;;;;;;5074093;28;20465;-76
2022/02/23 03:15:47;;;;;;;10.25;2.63;;;7.50;67.10;;;;;;5092068;28;20036;-76
2022/02/23 03:18:13;;;;;;;9.18;2.22;;;7.50;67.10;;;;;;5074106;28;20097;-76
2022/02/23 03:20:39;;;;;;;11.27;3.65;;;7.50;67.10;;;;;;5074288;28;20107;-76
2022/02/23 03:23:05;;;;;;;8.82;2.53;;;7.50;67.20;;;;;;5092125;28;20071;-76
2022/02/23 03:25:31;;;;;;;11.20;2.95;;;7.50;67.10;;;;;;5074237;28;20055;-76
2022/02/23 03:27:57;;;;;;;8.23;2.40;;;7.50;67.10;;;;;;5074503;28;20032;-75
2022/02/23 03:30:23;;;;;;;15.00;2.55;;;7.50;67.10;;;;;;5092606;28;20117;-75
2022/02/23 03:32:49;;;;;;;7.93;2.42;;;7.50;67.10;;;;;;5092366;28;20039;-75
2022/02/23 03:35:15;;;;;;;10.00;3.40;;;7.50;67.20;;;;;;5073896;28;20475;-75
2022/02/23 03:37:42;;;;;;;11.73;2.58;;;7.40;67.00;;;;;;5073899;28;20038;-76
2022/02/23 03:40:08;;;;;;;11.15;2.70;;;7.50;67.10;;;;;;5091826;28;20498;-75
2022/02/23 03:42:34;;;;;;;8.48;2.50;;;7.40;67.00;;;;;;5073899;28;20051;-75
2022/02/23 03:45:00;;;;;;;9.05;2.90;;;7.50;67.20;;;;;;5091609;28;20025;-75
2022/02/23 03:47:26;;;;;;;9.65;2.88;;;7.40;67.00;;;;;;5091605;28;20151;-75
2022/02/23 03:49:53;;;;;;;9.65;3.08;;;7.40;67.00;;;;;;5073689;28;20481;-75
2022/02/23 03:52:21;;;;;;;11.48;2.42;;;7.40;66.90;;;;;;5091566;28;20409;-75
2022/02/23 03:54:47;;;;;;;12.02;2.35;;;7.40;67.00;;;;;;5091807;28;20028;-75
2022/02/23 03:57:13;;;;;;;9.13;2.85;;;7.50;67.20;;;;;;5091590;28;20032;-76
2022/02/23 03:59:39;;;;;;;11.52;2.90;;;7.40;67.00;;;;;;5093628;28;20032;-76
2022/02/23 04:02:05;;;;;;;12.23;2.35;;;7.50;67.10;;;;;;5093643;28;20513;-77
2022/02/23 04:04:31;;;;;;;9.50;4.07;;;7.40;66.90;;;;;;5092905;28;20028;-77
2022/02/23 04:06:57;;;;;;;8.43;2.38;;;7.40;66.90;;;;;;5074270;28;20107;-77
2022/02/23 04:09:24;;;;;;;9.20;2.53;;;7.40;66.90;;;;;;5073843;28;20115;-77
2022/02/23 04:11:50;;;;;;;10.93;2.40;;;7.40;66.90;;;;;;5073705;28;20042;-77
2022/02/23 04:14:16;;;;;;;9.13;2.50;;;7.40;66.90;;;;;;5091473;28;20036;-77
2022/02/23 04:16:42;;;;;;;8.63;2.58;;;7.40;67.00;;;;;;5091291;28;20367;-78
2022/02/23 04:19:08;;;;;;;8.82;2.65;;;7.40;67.00;;;;;;5073221;28;20127;-78
2022/02/23 04:21:34;;;;;;;9.35;2.65;;;7.40;67.00;;;;;;5091316;28;20103;-78
2022/02/23 04:24:00;;;;;;;11.10;3.10;;;7.40;67.00;;;;;;5091245;28;20036;-76
2022/02/23 04:26:27;;;;;;;12.40;2.83;;;7.40;67.00;;;;;;5091221;28;20088;-78
2022/02/23 04:28:53;;;;;;;7.43;2.08;;;7.40;67.00;;;;;;5090786;28;20032;-75
2022/02/23 04:31:20;;;;;;;9.00;2.90;;;7.40;66.90;;;;;;5091038;28;20028;-78
2022/02/23 04:33:46;;;;;;;11.65;3.47;;;7.40;67.40;;;;;;5090956;28;20510;-77
2022/02/23 04:36:12;;;;;;;11.10;3.33;;;7.40;66.90;;;;;;5091099;28;20038;-77
2022/02/23 04:38:38;;;;;;;9.43;2.47;;;7.40;66.90;;;;;;5072574;28;20604;-78
2022/02/23 04:41:06;;;;;;;11.25;2.03;;;7.40;66.90;;;;;;5090695;28;20479;-75
2022/02/23 04:43:33;;;;;;;9.50;2.60;;;7.40;66.90;;;;;;5090777;28;20039;-77
2022/02/23 04:46:01;;;;;;;7.32;2.33;;;7.40;66.90;;;;;;5072212;28;20024;-77
2022/02/23 04:48:27;;;;;;;6.68;2.15;;;7.40;66.90;;;;;;5090540;28;20039;-77
2022/02/23 04:50:54;;;;;;;7.80;2.60;;;7.40;67.00;;;;;;5072102;28;20028;-77
2022/02/23 04:53:20;;;;;;;8.63;2.40;;;7.40;67.00;;;;;;5090825;28;20039;-77
2022/02/23 04:55:46;;;;;;;6.43;2.00;;;7.40;67.00;;;;;;5090788;28;20054;-77
2022/02/23 04:58:12;;;;;;;10.65;3.92;;;7.40;67.00;;;;;;5090466;28;20674;-76
2022/02/23 05:00:38;;;;;;;9.20;2.08;;;7.30;66.90;;;;;;5072348;28;20554;-77
2022/02/23 05:03:05;;;;;;;6.85;1.90;;;7.30;66.90;;;;;;5072076;28;20139;-77
2022/02/23 05:05:31;;;;;;;7.57;2.30;;;7.30;66.90;;;;;;5072415;28;20089;-76
2022/02/23 05:07:58;;;;;;;8.45;2.88;;;7.40;67.10;;;;;;5090159;28;20028;-77
2022/02/23 05:10:25;;;;;;;8.55;2.15;;;7.40;67.10;;;;;;5090440;28;20474;-77
2022/02/23 05:12:51;;;;;;;9.52;1.98;;;7.40;67.10;;;;;;5072455;28;20032;-77
2022/02/23 05:15:17;;;;;;;5.25;1.95;;;7.40;67.10;;;;;;5090059;28;20020;-77
2022/02/23 05:17:43;;;;;;;10.40;2.83;;;7.50;67.30;;;;;;5072041;28;20487;-76
2022/02/23 05:20:10;;;;;;;6.78;2.45;;;7.50;67.20;;;;;;5090301;28;20490;-77
2022/02/23 05:22:37;;;;;;;9.27;2.65;;;7.50;67.10;;;;;;5055618;28;20040;-77
2022/02/23 05:25:04;;;;;;;8.18;1.98;;;7.50;67.00;;;;;;5089948;28;20032;-77
2022/02/23 05:27:31;;;;;;;9.40;2.08;;;7.50;67.00;;;;;;5072236;28;20032;-77
2022/02/23 05:29:57;;;;;;;6.68;2.22;;;7.60;67.10;;;;;;5072079;28;20052;-78
2022/02/23 05:32:23;;;;;;;9.35;3.35;;;7.60;67.10;;;;;;5090292;28;20122;-77
2022/02/23 05:34:49;;;;;;;7.55;2.10;;;7.50;66.90;;;;;;5089705;28;20114;-77
2022/02/23 05:37:15;;;;;;;10.68;3.28;;;7.60;67.10;;;;;;5072004;28;20508;-77
2022/02/23 05:39:41;;;;;;;15.00;3.50;;;7.60;67.10;;;;;;5089940;28;20035;-77
2022/02/23 05:42:07;;;;;;;7.70;2.08;;;7.60;67.00;;;;;;5090044;28;20040;-77
2022/02/23 05:44:33;;;;;;;8.05;2.45;;;7.60;67.10;;;;;;5090174;28;20024;-77
2022/02/23 05:46:59;;;;;;;8.75;2.55;;;7.60;67.00;;;;;;5089620;28;20517;-76
2022/02/23 05:49:25;;;;;;;6.38;2.05;;;7.60;67.00;;;;;;5064831;28;20109;-76
2022/02/23 05:51:52;;;;;;;9.18;3.00;;;7.60;67.10;;;;;;5066196;28;20029;-77
2022/02/23 05:54:18;;;;;;;7.57;2.05;;;7.60;67.00;;;;;;5066382;28;20062;-77
2022/02/23 05:56:44;;;;;;;5.22;1.65;;;7.60;67.10;;;;;;5048002;28;20510;-77
2022/02/23 05:59:10;;;;;;;9.60;1.98;;;7.60;67.10;;;;;;5066325;28;20044;-77
2022/02/23 06:01:37;;;;;;;4.97;1.70;;;7.60;67.10;;;;;;5048473;28;20162;-77
2022/02/23 06:04:03;;;;;;;9.40;2.15;;;7.60;67.10;;;;;;5048508;28;20368;-77
2022/02/23 06:06:30;;;;;;;10.10;2.65;;;7.60;67.10;;;;;;5048715;28;20029;-77
2022/02/23 06:08:57;;;;;;;9.68;1.95;;;7.60;67.10;;;;;;5072454;28;20037;-77
2022/02/23 06:11:24;;;;;;;5.78;1.80;;;7.70;67.20;;;;;;5063932;28;20027;-77
2022/02/23 06:13:53;;;;;;;10.35;2.85;;;7.70;67.20;;;;;;5086899;28;20035;-77
2022/02/23 06:16:24;;;;;;;6.25;1.90;;;7.70;67.10;;;;;;5086912;28;20024;-77
2022/02/23 06:18:57;;;;;;;6.28;1.52;;;7.70;67.10;;;;;;5068340;28;20035;-75
2022/02/23 06:21:26;;;;;;;9.68;2.30;;;7.70;67.00;;;;;;5059205;28;20131;-75
2022/02/23 06:23:53;;;;;;;6.43;2.25;;;7.80;67.10;;;;;;5079001;28;20039;-74
2022/02/23 06:26:19;;;;;;;6.85;2.63;;;7.80;67.10;;;;;;5066466;28;20759;-76
2022/02/23 06:28:45;;;;;;;7.70;1.85;;;7.80;67.10;;;;;;5080499;28;20455;-76
2022/02/23 06:31:12;;;;;;;7.22;2.05;;;7.80;67.10;;;;;;5059559;28;20035;-77
2022/02/23 06:33:39;;;;;;;7.25;2.08;;;7.80;67.00;;;;;;5077430;28;20103;-78
2022/02/23 06:36:05;;;;;;;8.55;2.00;;;7.80;67.00;;;;;;5087887;28;20062;-78
2022/02/23 06:38:32;;;;;;;6.32;1.55;;;7.90;67.10;;;;;;5090678;28;20064;-76
2022/02/23 06:40:58;;;;;;;5.75;2.30;;;7.90;67.10;;;;;;5085738;28;20024;-76
2022/02/23 06:43:25;;;;;;;8.68;3.00;;;7.90;67.10;;;;;;5078279;28;20036;-78
2022/02/23 06:45:52;;;;;;;10.10;2.65;;;7.90;67.10;;;;;;5079640;28;20113;-77
2022/02/23 06:48:19;;;;;;;11.73;2.30;;;7.90;67.10;;;;;;5080335;28;20552;-77
2022/02/23 06:50:46;;;;;;;9.43;2.38;;;7.90;67.10;;;;;;5089682;28;20056;-76
2022/02/23 06:53:15;;;;;;;5.55;2.28;;;7.90;67.10;;;;;;5089597;28;20028;-76
2022/02/23 06:55:42;;;;;;;6.43;2.08;;;7.90;67.10;;;;;;5071920;28;20059;-76
2022/02/23 06:58:09;;;;;;;9.27;1.58;;;7.90;67.10;;;;;;5071355;28;20116;-77
2022/02/23 07:00:37;;;;;;;10.93;2.83;;;7.90;67.10;;;;;;5089549;28;20021;-76
2022/02/23 07:03:03;;;;;;;4.63;1.80;;;7.90;67.10;;;;;;5071136;28;20113;-77
2022/02/23 07:05:29;;;;;;;9.55;1.85;;;8.00;67.30;;;;;;5089626;28;20069;-77
2022/02/23 07:07:56;;;;;;;6.88;2.03;;;8.00;67.20;;;;;;5071662;28;20066;-77
2022/02/23 07:10:26;;;;;;;8.32;2.13;;;8.00;67.20;;;;;;5089247;28;20026;-76
2022/02/23 07:12:53;;;;;;;9.75;2.00;;;8.00;67.20;;;;;;5086398;28;20047;-77
2022/02/23 07:15:21;;;;;;;8.43;2.17;;;8.00;67.20;;;;;;5073763;28;20556;-77
2022/02/23 07:17:48;;;;;;;9.30;1.70;;;8.00;67.20;;;;;;5082306;28;20036;-78
2022/02/23 07:20:15;;;;;;;7.63;1.77;;;8.00;67.10;;;;;;5070734;28;20024;-77
2022/02/23 07:22:41;;;;;;;7.35;2.05;;;8.00;67.10;;;;;;5089157;28;20092;-78
2022/02/23 07:25:09;;;;;;;8.13;2.17;;;8.10;67.20;;;;;;5071306;28;20148;-78
2022/02/23 07:27:36;;;;;;;8.77;1.90;;;8.10;67.20;;;;;;5087669;28;20028;-78
2022/02/23 07:30:08;;;;;;;10.18;2.42;;;8.10;67.10;;;;;;5068541;28;20029;-79
2022/02/23 07:32:34;;;;;;;8.95;2.17;;;8.10;67.10;;;;;;5051273;28;20028;-78
2022/02/23 07:35:03;;;;;;;10.27;1.77;;;8.10;67.10;;;;;;5057206;28;20578;-76
2022/02/23 07:37:29;;;;;;;9.02;2.90;;;8.20;67.20;;;;;;5059498;28;20465;-80
2022/02/23 07:40:01;;;;;;;5.90;1.85;;;8.20;67.10;;;;;;5085233;28;20149;-78
2022/02/23 07:42:27;;;;;;;7.90;2.17;;;8.20;67.10;;;;;;5054822;28;20047;-78
2022/02/23 07:44:53;;;;;;;6.80;1.95;;;8.30;67.20;;;;;;5049676;28;20388;-78
2022/02/23 07:47:19;;;;;;;7.18;1.98;;;8.30;67.10;;;;;;5054871;28;20139;-76
2022/02/23 07:49:49;;;;;;;4.82;1.92;;;8.30;67.10;;;;;;5061161;28;20063;-78
2022/02/23 07:52:19;;;;;;;9.80;1.95;;;8.40;67.20;;;;;;5081268;28;20096;-77
2022/02/23 07:54:46;;;;;;;6.53;1.70;;;8.40;67.20;;;;;;5082529;28;20922;-77
2022/02/23 07:57:13;;;;;;;7.80;2.65;;;8.50;67.30;;;;;;5097113;28;20039;-77
2022/02/23 07:59:39;;;;;;;8.38;2.17;;;8.50;67.20;;;;;;5085169;28;20020;-78
2022/02/23 08:02:05;;;;;;;5.05;1.60;;;8.60;67.30;;;;;;5103808;28;20032;-76
2022/02/23 08:04:34;;;;;;;6.65;1.80;;;8.60;67.20;;;;;;5102077;28;20035;-77
2022/02/23 08:07:00;;;;;;;7.57;1.85;;;8.60;67.10;;;;;;5101602;28;20040;-78
2022/02/23 08:09:27;;;;;;;5.28;1.98;;;8.70;67.30;;;;;;5082747;28;20031;-78
2022/02/23 08:11:53;;;;;;;5.90;1.48;;;8.70;67.20;;;;;;5095507;28;20029;-78
2022/02/23 08:14:19;;;;;;;8.90;2.28;;;8.80;67.20;;;;;;5093146;28;20079;-77
2022/02/23 08:19:36;;;;;;;6.97;1.80;;;8.90;67.20;;;;;;5069678;28;20383;-77
2022/02/23 08:22:05;;;;;;;7.68;1.55;;;9.00;67.30;;;;;;5067426;28;20036;-77
2022/02/23 08:24:34;;;;;;;4.75;1.92;;;9.00;67.10;;;;;;5068240;28;20515;-78
2022/02/23 08:27:02;;;;;;;5.95;1.50;;;9.10;67.30;;;;;;5068146;28;20032;-77
2022/02/23 08:29:28;;;;;;;5.25;1.50;;;9.10;67.20;;;;;;5085252;28;20057;-78
2022/02/23 08:31:54;;;;;;;7.28;2.20;;;9.20;67.30;;;;;;5069871;28;20397;-77
2022/02/23 08:34:21;;;;;;;9.10;2.40;;;9.30;67.30;;;;;;5070063;28;20519;-79
2022/02/23 08:36:48;;;;;;;4.60;1.35;;;9.40;67.30;;;;;;5087361;28;20059;-78
2022/02/23 08:39:17;;;;;;;6.60;1.80;;;9.40;67.20;;;;;;5052693;28;20028;-78
2022/02/23 08:41:44;;;;;;;4.00;1.48;;;9.50;67.20;;;;;;5087961;28;20074;-79
2022/02/23 08:44:12;;;;;;;5.57;2.25;;;9.60;67.20;;;;;;5069374;28;20491;-77
2022/02/23 08:46:39;;;;;;;5.78;1.50;;;9.70;67.30;;;;;;5087309;28;20076;-77
2022/02/23 08:49:10;;;;;;;5.18;1.35;;;9.70;67.20;;;;;;5069067;28;20092;-78
2022/02/23 08:51:38;;;;;;;7.00;1.45;;;9.80;67.30;;;;;;5087663;28;20032;-77
2022/02/23 08:54:05;;;;;;;6.07;1.48;;;9.80;67.10;;;;;;5087202;28;20032;-77
2022/02/23 08:56:33;;;;;;;5.13;1.45;;;9.90;67.20;;;;;;5086663;28;20031;-77
2022/02/23 08:58:59;;;;;;;6.97;1.70;;;10.00;67.20;;;;;;5086216;28;20507;-77
2022/02/23 09:01:29;;;;;;;6.70;1.70;;;10.00;67.60;;;;;;5087299;28;20028;-77
2022/02/23 09:03:57;;;;;;;5.53;1.95;;;10.10;67.10;;;;;;5087233;28;20035;-77
2022/02/23 09:06:24;;;;;;;4.13;1.35;;;10.20;67.20;;;;;;5068963;28;20028;-78
2022/02/23 09:08:50;;;;;;;4.50;1.25;;;10.30;67.20;;;;;;5068927;28;20032;-78
2022/02/23 09:11:17;;;;;;;5.63;1.23;;;10.40;67.30;;;;;;5087817;28;20290;-79
2022/02/23 09:13:43;;;;;;;8.80;2.38;;;10.40;67.10;;;;;;5087130;28;20039;-78
2022/02/23 09:16:09;;;;;;;4.05;1.27;;;10.50;67.10;;;;;;5085117;28;20138;-79
2022/02/23 09:18:35;;;;;;;5.35;1.63;;;10.70;67.30;;;;;;5078464;28;20082;-78
2022/02/23 09:21:02;;;;;;;6.93;1.70;;;10.70;67.10;;;;;;5070812;28;20513;-77
2022/02/23 09:23:28;;;;;;;6.78;1.73;;;10.80;67.10;;;;;;5088629;28;20082;-78
2022/02/23 09:25:56;;;;;;;8.63;2.17;;;10.90;67.10;;;;;;5088077;28;20089;-77
2022/02/23 09:28:22;;;;;;;6.32;1.80;;;10.90;67.00;;;;;;5069790;28;20442;-77
2022/02/23 09:30:48;;;;;;;3.25;1.38;;;11.00;67.00;;;;;;5068828;28;20478;-79
2022/02/23 09:33:15;;;;;;;5.72;1.40;;;11.00;66.90;;;;;;5068818;28;20032;-78
2022/02/23 09:35:42;;;;;;;8.10;1.80;;;11.10;67.00;;;;;;5087364;28;20028;-77
2022/02/23 09:38:08;;;;;;;5.75;1.58;;;11.10;66.90;;;;;;5086792;28;20483;-77
2022/02/23 09:40:35;;;;;;;7.38;1.98;;;11.20;67.00;;;;;;5086931;28;20026;-79
2022/02/23 09:43:02;;;;;;;7.10;1.58;;;11.20;66.90;;;;;;5086707;28;20055;-75
2022/02/23 09:45:28;;;;;;;6.00;1.50;;;11.30;66.90;;;;;;5086674;28;20028;-74
2022/02/23 09:47:55;;;;;;;6.53;1.52;;;11.40;67.00;;;;;;5086295;28;20131;-74
2022/02/23 09:50:22;;;;;;;4.70;1.77;;;11.40;66.80;;;;;;5068923;28;20035;-75
2022/02/23 09:52:50;;;;;;;3.67;1.77;;;11.50;66.90;;;;;;5086501;28;20038;-77
2022/02/23 09:55:17;;;;;;;3.45;1.25;;;11.60;66.90;;;;;;5068409;28;20028;-77
2022/02/23 09:57:43;;;;;;;4.47;1.83;;;11.60;66.80;;;;;;5068717;28;20551;-77
2022/02/23 10:00:11;;;;;;;7.22;1.70;;;11.70;66.80;;;;;;5068133;28;20151;-77
2022/02/23 10:02:37;;;;;;;4.55;2.50;;;11.80;66.80;;;;;;5090440;28;20043;-76
2022/02/23 10:05:06;;;;;;;5.32;1.50;;;11.90;66.80;;;;;;5090672;28;20024;-78
2022/02/23 10:07:38;;;;;;;8.88;2.90;;;12.00;66.80;;;;;;5072637;28;20032;-77
2022/02/23 10:10:08;;;;;;;4.38;1.75;;;12.10;66.80;;;;;;5090250;28;20498;-78
2022/02/23 10:12:36;;;;;;;6.95;2.47;;;12.20;66.70;;;;;;5072220;28;20466;-81
2022/02/23 10:15:06;;;;;;;6.57;1.30;;;12.30;66.70;;;;;;5072800;28;20414;-76
2022/02/23 10:17:43;;;;;;;4.15;1.08;;;12.40;66.60;;;;;;5090184;28;20390;-80
2022/02/23 10:20:21;;;;;;;4.63;1.63;;;12.50;66.50;;;;;;5090671;28;20035;-80
2022/02/23 10:22:49;;;;;;;8.20;2.78;;;12.50;66.40;;;;;;5089748;28;20494;-80
2022/02/23 10:25:24;;;;;;;5.20;1.63;;;12.60;66.60;;;;;;5071910;28;20028;-77
2022/02/23 10:27:51;;;;;;;7.05;2.58;;;12.70;66.60;;;;;;5089703;28;20028;-80
2022/02/23 10:30:28;;;;;;;5.72;2.20;;;12.80;66.60;;;;;;5071920;28;20077;-80
2022/02/23 10:32:56;;;;;;;4.82;1.48;;;12.90;66.50;;;;;;5071853;28;20042;-81
2022/02/23 10:35:27;;;;;;;7.00;2.08;;;13.00;66.50;;;;;;5090245;28;20039;-80
2022/02/23 10:37:53;;;;;;;4.97;1.35;;;13.00;66.30;;;;;;5089589;28;20028;-81
2022/02/23 10:40:19;;;;;;;3.97;1.08;;;13.10;66.40;;;;;;5089926;28;20036;-78
2022/02/23 10:42:45;;;;;;;6.70;2.20;;;13.20;66.40;;;;;;5089370;28;20028;-78
2022/02/23 10:45:17;;;;;;;5.30;1.70;;;13.20;66.20;;;;;;5090199;28;20036;-80
2022/02/23 10:47:47;;;;;;;4.68;1.80;;;13.30;66.20;;;;;;5071127;28;20048;-78
2022/02/23 10:50:15;;;;;;;5.60;1.50;;;13.40;66.20;;;;;;5071821;28;20083;-78
2022/02/23 10:53:02;;;;;;;4.90;1.50;;;13.40;66.10;;;;;;5071504;28;20035;-77
2022/02/23 10:55:31;;;;;;;6.00;1.40;;;13.40;66.10;;;;;;5071748;28;20062;-80
2022/02/23 10:58:02;;;;;;;7.32;1.88;;;13.40;66.00;;;;;;5071585;28;20024;-80
2022/02/23 11:00:35;;;;;;;4.70;1.67;;;13.50;66.10;;;;;;5071587;28;20028;-81
2022/02/23 11:03:03;;;;;;;4.43;1.60;;;13.50;65.90;;;;;;5054701;28;20040;-79
2022/02/23 11:05:31;;;;;;;5.78;2.03;;;13.50;65.90;;;;;;5071784;28;20024;-81
2022/02/23 11:08:03;;;;;;;4.68;1.52;;;13.50;65.90;;;;;;5089258;28;20391;-78
2022/02/23 11:10:30;;;;;;;5.43;1.53;;;13.50;65.90;;;;;;5071647;28;20051;-79
2022/02/23 11:12:58;;;;;;;6.88;1.80;;;13.50;65.80;;;;;;5070949;28;20541;-77
2022/02/23 11:15:25;;;;;;;9.13;2.63;;;13.60;65.90;;;;;;5088987;28;20552;-79
2022/02/23 11:17:54;;;;;;;11.63;3.22;;;13.60;65.60;;;;;;5089200;28;20032;-78
2022/02/23 11:20:31;;;;;;;8.75;2.88;;;13.60;65.30;;;;;;5071430;28;20348;-77
2022/02/23 11:23:00;;;;;;;9.55;2.42;;;13.50;65.00;;;;;;5089143;28;20043;-77
2022/02/23 11:25:32;;;;;;;10.50;2.83;;;13.60;65.30;;;;;;5089465;28;20028;-77
2022/02/23 11:28:22;;;;;;;5.85;2.45;;;13.70;65.60;;;;;;5071216;28;20105;-77
2022/02/23 11:30:59;;;;;;;11.13;3.33;;;13.80;65.60;;;;;;5088575;28;20028;-78
2022/02/23 11:33:57;;;;;;;8.23;1.40;;;14.00;65.70;;;;;;5054304;28;20042;-77
2022/02/23 11:36:34;;;;;;;5.00;1.42;;;14.10;65.50;;;;;;5088744;28;20036;-78
2022/02/23 11:39:13;;;;;;;5.15;1.45;;;14.30;65.70;;;;;;5070562;28;20398;-78
2022/02/23 11:41:41;;;;;;;14.57;3.33;;;14.40;65.60;;;;;;5071021;28;20093;-78
2022/02/23 11:44:24;;;;;;;7.80;1.38;;;14.50;65.50;;;;;;5089290;28;20040;-79
2022/02/23 11:46:55;;;;;;;7.93;2.05;;;14.70;65.50;;;;;;5088809;28;20044;-77
2022/02/23 11:49:27;;;;;;;8.02;2.25;;;14.80;65.40;;;;;;5054377;28;20428;-78
2022/02/23 11:52:13;;;;;;;8.13;3.28;;;14.90;65.30;;;;;;5089024;28;20059;-78
2022/02/23 11:54:49;;;;;;;5.05;1.13;;;14.90;65.10;;;;;;5088974;28;20025;-78
2022/02/23 11:57:49;;;;;;;3.78;1.45;;;14.80;65.10;;;;;;5089012;28;20024;-78
2022/02/23 12:00:24;;;;;;;4.25;1.33;;;14.80;65.10;;;;;;5070479;28;20030;-78
2022/02/23 12:03:03;;;;;;;5.03;2.00;;;14.60;65.00;;;;;;5088125;28;20059;-77
2022/02/23 12:05:43;;;;;;;4.95;1.83;;;14.60;65.10;;;;;;5088270;28;20044;-77
2022/02/23 12:08:32;;;;;;;3.83;1.33;;;14.50;65.00;;;;;;5087797;28;20036;-77
2022/02/23 12:10:58;;;;;;;5.95;1.40;;;14.60;65.20;;;;;;5080162;28;20035;-80
2022/02/23 12:13:42;;;;;;;5.63;1.48;;;14.50;65.30;;;;;;5053326;28;20127;-80
2022/02/23 12:16:38;;;;;;;3.20;1.48;;;14.70;66.10;;;;;;5088624;28;20042;-79
2022/02/23 12:19:07;;;;;;;2.42;1.25;;;14.80;66.20;;;;;;5087934;28;20115;-79
2022/02/23 12:21:54;;;;;;;4.28;1.20;;;15.00;66.20;;;;;;5088414;28;20051;-78
2022/02/23 12:24:22;;;;;;;3.90;1.02;;;15.20;66.10;;;;;;5069347;28;20032;-77
2022/02/23 12:26:54;;;;;;;3.25;0.93;;;15.30;66.00;;;;;;5069446;28;20114;-78
2022/02/23 12:29:29;;;;;;;7.30;1.67;;;15.50;65.90;;;;;;5070144;28;20148;-78
2022/02/23 12:32:07;;;;;;;4.65;1.70;;;15.60;65.70;;;;;;5089063;28;20028;-78
2022/02/23 12:34:34;;;;;;;9.32;2.45;;;15.70;65.50;;;;;;5089602;28;20066;-77
2022/02/23 12:37:03;;;;;;;7.78;1.52;;;15.70;65.40;;;;;;5089226;28;20034;-77
2022/02/23 12:39:30;;;;;;;4.95;1.25;;;15.70;65.20;;;;;;5088558;28;20032;-78
2022/02/23 12:42:05;;;;;;;4.05;1.42;;;15.80;65.30;;;;;;5089077;28;20096;-77
2022/02/23 12:44:37;;;;;;;4.35;1.40;;;15.80;65.20;;;;;;5088386;28;20090;-78
2022/02/23 12:47:12;;;;;;;5.57;1.27;;;15.70;64.90;;;;;;5057225;28;20284;-79
2022/02/23 12:49:38;;;;;;;4.38;1.23;;;15.70;64.90;;;;;;5048265;28;20033;-79
2022/02/23 12:52:06;;;;;;;6.72;1.60;;;15.60;64.80;;;;;;5029890;28;20108;-77
2022/02/23 12:54:32;;;;;;;4.95;2.40;;;15.50;64.80;;;;;;5037588;28;20087;-80
2022/02/23 12:57:00;;;;;;;6.22;2.55;;;15.40;64.70;;;;;;5040185;28;20071;-80
2022/02/23 12:59:29;;;;;;;2.97;1.40;;;15.30;64.60;;;;;;5034988;28;20036;-80